Time;durP1;ratioP1;P1;durP2;ratioP2;P2;SDS_P1;SDS_P2;PMS_P1;PMS_P2;Temp;Humidity;BMP_temperature;BMP_pressure;BME280_temperature;BME280_humidity;BME280_pressure;Samples;Min_cycle;Max_cycle;Signal;HPM_P1;HPM_P2
2021/12/29 00:00:43;;;;;;;11.02;4.85;;;-3.70;89.60;;;;;;5075311;28;20028;-77
2021/12/29 00:03:09;;;;;;;8.68;4.72;;;-3.70;89.70;;;;;;5074052;28;20044;-77
2021/12/29 00:05:35;;;;;;;12.13;5.53;;;-3.70;89.60;;;;;;5074140;28;20028;-77
2021/12/29 00:08:02;;;;;;;8.38;4.68;;;-3.70;89.40;;;;;;5074256;28;20050;-77
2021/12/29 00:10:29;;;;;;;8.23;4.05;;;-3.70;90.00;;;;;;5075228;28;20033;-77
2021/12/29 00:12:56;;;;;;;8.48;5.25;;;-3.70;89.60;;;;;;5075589;28;20128;-77
2021/12/29 00:15:28;;;;;;;6.82;3.78;;;-3.60;89.80;;;;;;5073139;28;20040;-78
2021/12/29 00:17:56;;;;;;;13.27;5.18;;;-3.60;89.60;;;;;;5073933;28;20021;-78
2021/12/29 00:20:28;;;;;;;6.15;3.65;;;-3.60;89.40;;;;;;5073939;28;20028;-77
2021/12/29 00:22:57;;;;;;;7.88;4.38;;;-3.60;89.20;;;;;;5073773;28;20040;-78
2021/12/29 00:25:23;;;;;;;7.57;4.05;;;-3.60;89.00;;;;;;5073468;28;20032;-78
2021/12/29 00:27:49;;;;;;;14.93;5.13;;;-3.60;89.30;;;;;;5053006;28;20103;-78
2021/12/29 00:30:15;;;;;;;7.63;4.18;;;-3.60;89.50;;;;;;5033505;28;20067;-78
2021/12/29 00:32:41;;;;;;;7.80;4.38;;;-3.60;89.70;;;;;;5035110;28;20422;-78
2021/12/29 00:35:11;;;;;;;6.88;4.57;;;-3.60;89.30;;;;;;5035162;28;20029;-77
2021/12/29 00:37:36;;;;;;;8.57;4.70;;;-3.60;89.10;;;;;;5050340;28;20471;-78
2021/12/29 00:40:03;;;;;;;11.90;4.25;;;-3.60;89.00;;;;;;5034503;28;20025;-78
2021/12/29 00:42:29;;;;;;;7.65;4.43;;;-3.60;88.80;;;;;;5033563;28;20025;-77
2021/12/29 00:44:55;;;;;;;8.98;4.75;;;-3.60;89.20;;;;;;5035019;28;20514;-78
2021/12/29 00:47:20;;;;;;;5.55;3.65;;;-3.60;89.30;;;;;;5033467;28;20047;-78
2021/12/29 00:49:47;;;;;;;6.57;4.40;;;-3.60;89.40;;;;;;5033738;28;20022;-78
2021/12/29 00:52:13;;;;;;;7.38;4.40;;;-3.60;89.30;;;;;;5050030;28;20117;-78
2021/12/29 00:54:41;;;;;;;6.40;4.93;;;-3.60;89.20;;;;;;5034602;28;20368;-78
2021/12/29 00:57:07;;;;;;;8.05;5.18;;;-3.60;89.00;;;;;;5034454;28;20025;-78
2021/12/29 00:59:32;;;;;;;8.93;4.35;;;-3.60;89.00;;;;;;5034534;28;20033;-78
2021/12/29 01:01:58;;;;;;;8.98;4.47;;;-3.60;88.90;;;;;;5033274;28;20118;-78
2021/12/29 01:04:24;;;;;;;7.53;4.72;;;-3.60;89.10;;;;;;5034310;28;20037;-78
2021/12/29 01:06:52;;;;;;;7.80;5.25;;;-3.60;89.20;;;;;;5049732;28;20433;-78
2021/12/29 01:09:18;;;;;;;10.80;4.95;;;-3.60;89.20;;;;;;5049484;28;20041;-78
2021/12/29 01:11:44;;;;;;;9.85;4.93;;;-3.60;89.40;;;;;;5034267;28;20532;-78
2021/12/29 01:14:10;;;;;;;9.57;5.68;;;-3.60;89.10;;;;;;5050066;28;20040;-78
2021/12/29 01:16:36;;;;;;;6.15;4.15;;;-3.60;89.00;;;;;;5049839;28;20029;-78
2021/12/29 01:19:10;;;;;;;7.88;4.90;;;-3.60;88.90;;;;;;5049493;28;20116;-78
2021/12/29 01:21:39;;;;;;;7.63;4.95;;;-3.60;89.20;;;;;;5049734;28;20460;-77
2021/12/29 01:24:06;;;;;;;9.20;4.75;;;-3.60;88.90;;;;;;5033764;28;20026;-78
2021/12/29 01:26:32;;;;;;;7.90;4.38;;;-3.60;88.80;;;;;;5049164;28;20036;-78
2021/12/29 01:28:58;;;;;;;9.32;4.88;;;-3.60;89.10;;;;;;5034041;28;20037;-78
2021/12/29 01:31:23;;;;;;;9.38;5.47;;;-3.60;89.00;;;;;;5034066;28;20103;-78
2021/12/29 01:33:49;;;;;;;9.65;5.40;;;-3.60;89.10;;;;;;5033152;28;20452;-78
2021/12/29 01:36:15;;;;;;;6.72;4.30;;;-3.60;89.20;;;;;;5034243;28;20029;-78
2021/12/29 01:38:41;;;;;;;10.88;4.88;;;-3.60;89.10;;;;;;5048998;28;20121;-78
2021/12/29 01:41:06;;;;;;;7.68;4.50;;;-3.60;88.90;;;;;;5049220;28;20029;-78
2021/12/29 01:43:32;;;;;;;6.28;3.97;;;-3.70;89.00;;;;;;5049366;28;20029;-78
2021/12/29 01:45:58;;;;;;;8.10;4.93;;;-3.60;89.30;;;;;;5032618;28;20044;-78
2021/12/29 01:48:23;;;;;;;8.57;4.93;;;-3.60;89.50;;;;;;5032397;28;20459;-78
2021/12/29 01:50:51;;;;;;;12.88;5.55;;;-3.60;89.50;;;;;;5033783;28;20053;-78
2021/12/29 01:53:31;;;;;;;14.88;6.38;;;-3.60;89.50;;;;;;5033955;28;20017;-78
2021/12/29 01:55:57;;;;;;;9.18;5.45;;;-3.60;89.60;;;;;;5049570;28;20072;-78
2021/12/29 01:58:24;;;;;;;12.25;5.45;;;-3.60;89.20;;;;;;5033736;28;20025;-78
2021/12/29 02:00:52;;;;;;;14.32;6.25;;;-3.60;89.40;;;;;;5033775;28;20033;-77
2021/12/29 02:03:18;;;;;;;11.57;6.05;;;-3.60;89.50;;;;;;5033773;28;20357;-77
2021/12/29 02:05:44;;;;;;;8.50;5.10;;;-3.60;89.40;;;;;;5032269;28;20036;-78
2021/12/29 02:08:10;;;;;;;9.48;4.85;;;-3.60;89.20;;;;;;5033645;28;20108;-78
2021/12/29 02:10:43;;;;;;;9.48;4.95;;;-3.60;89.30;;;;;;5033784;28;20056;-77
2021/12/29 02:13:10;;;;;;;10.38;5.47;;;-3.60;89.70;;;;;;5033494;28;20045;-77
2021/12/29 02:15:36;;;;;;;7.68;4.57;;;-3.60;89.70;;;;;;5048727;28;20455;-78
2021/12/29 02:18:11;;;;;;;11.73;6.00;;;-3.60;89.70;;;;;;5033510;28;20032;-77
2021/12/29 02:20:37;;;;;;;5.07;3.72;;;-3.50;89.90;;;;;;5033791;28;20028;-78
2021/12/29 02:23:13;;;;;;;5.78;4.28;;;-3.60;89.60;;;;;;5033512;28;20018;-78
2021/12/29 02:25:48;;;;;;;5.63;4.30;;;-3.60;89.20;;;;;;5049512;28;20033;-78
2021/12/29 02:28:16;;;;;;;9.23;5.30;;;-3.60;89.40;;;;;;5048731;28;20030;-78
2021/12/29 02:30:42;;;;;;;7.68;5.07;;;-3.60;89.70;;;;;;5048471;28;20033;-78
2021/12/29 02:33:12;;;;;;;11.40;5.10;;;-3.60;89.60;;;;;;5048754;28;20371;-79
2021/12/29 02:35:38;;;;;;;8.85;4.38;;;-3.60;89.80;;;;;;5049019;28;20037;-78
2021/12/29 02:38:08;;;;;;;15.43;5.53;;;-3.60;89.80;;;;;;5033257;28;20430;-78
2021/12/29 02:40:35;;;;;;;11.63;5.40;;;-3.60;89.80;;;;;;5036900;28;20387;-77
2021/12/29 02:43:01;;;;;;;8.98;5.53;;;-3.60;90.00;;;;;;5052244;28;20036;-78
2021/12/29 02:45:29;;;;;;;10.40;5.43;;;-3.60;89.80;;;;;;5052025;28;20030;-78
2021/12/29 02:47:55;;;;;;;9.15;5.13;;;-3.60;89.90;;;;;;5052210;28;20029;-77
2021/12/29 02:50:21;;;;;;;7.70;4.15;;;-3.60;89.90;;;;;;5037173;28;20026;-77
2021/12/29 02:52:47;;;;;;;9.15;5.38;;;-3.70;90.00;;;;;;5035540;28;20532;-77
2021/12/29 02:55:14;;;;;;;12.77;5.40;;;-3.70;90.10;;;;;;5035544;28;20116;-78
2021/12/29 02:57:40;;;;;;;7.35;4.65;;;-3.70;90.20;;;;;;5052301;28;20460;-78
2021/12/29 03:00:06;;;;;;;10.18;5.75;;;-3.60;90.30;;;;;;5036518;28;20079;-78
2021/12/29 03:02:32;;;;;;;11.18;5.18;;;-3.60;90.40;;;;;;5035904;28;20482;-77
2021/12/29 03:05:00;;;;;;;7.45;4.43;;;-3.60;90.40;;;;;;5036635;28;20033;-77
2021/12/29 03:07:26;;;;;;;7.28;4.82;;;-3.60;90.40;;;;;;5036753;28;20029;-77
2021/12/29 03:09:51;;;;;;;6.22;4.38;;;-3.60;90.30;;;;;;5036462;28;20471;-78
2021/12/29 03:12:17;;;;;;;11.02;5.47;;;-3.60;90.40;;;;;;5036624;28;20060;-78
2021/12/29 03:14:55;;;;;;;10.85;4.85;;;-3.60;90.40;;;;;;5051949;28;20030;-78
2021/12/29 03:17:21;;;;;;;10.50;5.35;;;-3.60;90.40;;;;;;5037003;28;20021;-77
2021/12/29 03:19:47;;;;;;;13.07;6.63;;;-3.60;90.40;;;;;;5036454;28;20051;-78
2021/12/29 03:22:13;;;;;;;17.63;7.68;;;-3.60;90.50;;;;;;5036303;28;20510;-78
2021/12/29 03:24:39;;;;;;;16.60;7.80;;;-3.60;90.50;;;;;;5036310;28;20113;-78
2021/12/29 03:27:05;;;;;;;18.02;7.20;;;-3.60;90.60;;;;;;5035899;28;20041;-78
2021/12/29 03:29:31;;;;;;;15.32;6.00;;;-3.60;90.60;;;;;;5036029;28;20038;-78
2021/12/29 03:31:59;;;;;;;9.45;5.68;;;-3.60;90.70;;;;;;5034936;28;20036;-78
2021/12/29 03:34:25;;;;;;;13.00;6.55;;;-3.50;90.80;;;;;;5051396;28;20116;-77
2021/12/29 03:36:50;;;;;;;10.18;6.13;;;-3.50;90.70;;;;;;5034646;28;20120;-77
2021/12/29 03:39:17;;;;;;;8.98;5.85;;;-3.50;90.60;;;;;;5035872;28;20071;-77
2021/12/29 03:41:42;;;;;;;10.35;5.68;;;-3.50;90.50;;;;;;5034391;28;20025;-80
2021/12/29 03:44:08;;;;;;;8.40;5.03;;;-3.50;90.60;;;;;;5051207;28;20471;-79
2021/12/29 03:46:39;;;;;;;11.63;4.88;;;-3.50;90.60;;;;;;5035864;28;20029;-79
2021/12/29 03:49:05;;;;;;;9.07;4.78;;;-3.50;90.60;;;;;;5035676;28;20030;-81
2021/12/29 03:51:30;;;;;;;9.68;5.55;;;-3.50;90.60;;;;;;5034638;28;20032;-81
2021/12/29 03:53:56;;;;;;;6.47;4.25;;;-3.50;90.60;;;;;;5035912;28;20037;-81
2021/12/29 03:56:22;;;;;;;8.73;5.00;;;-3.50;90.90;;;;;;5035745;28;20029;-79
2021/12/29 03:58:48;;;;;;;9.07;5.18;;;-3.50;90.60;;;;;;5035827;28;20478;-80
2021/12/29 04:01:15;;;;;;;10.65;5.07;;;-3.50;90.70;;;;;;5034417;28;20025;-80
2021/12/29 04:03:45;;;;;;;14.18;6.28;;;-3.50;90.80;;;;;;5050888;28;20475;-79
2021/12/29 04:06:13;;;;;;;13.02;5.32;;;-3.50;90.90;;;;;;5050919;28;20120;-79
2021/12/29 04:08:38;;;;;;;10.27;5.65;;;-3.50;90.90;;;;;;5035471;28;20029;-79
2021/12/29 04:11:04;;;;;;;7.95;5.15;;;-3.50;90.90;;;;;;5050795;28;20030;-80
2021/12/29 04:13:30;;;;;;;7.18;5.05;;;-3.40;91.00;;;;;;5050630;28;20045;-79
2021/12/29 04:15:56;;;;;;;8.95;4.65;;;-3.40;91.00;;;;;;5035266;28;20033;-79
2021/12/29 04:18:26;;;;;;;10.30;5.10;;;-3.40;91.00;;;;;;5033890;28;20479;-80
2021/12/29 04:21:01;;;;;;;8.77;4.70;;;-3.40;91.00;;;;;;5051204;28;20421;-79
2021/12/29 04:23:32;;;;;;;10.70;6.05;;;-3.40;90.90;;;;;;5050580;28;20086;-80
2021/12/29 04:26:01;;;;;;;14.63;5.55;;;-3.50;90.90;;;;;;5050468;28;20036;-79
2021/12/29 04:28:28;;;;;;;11.95;6.38;;;-3.40;90.90;;;;;;5035177;28;20034;-80
2021/12/29 04:30:56;;;;;;;15.73;7.15;;;-3.50;90.90;;;;;;5050247;28;20029;-79
2021/12/29 04:33:23;;;;;;;13.57;7.00;;;-3.40;91.00;;;;;;5035132;28;20037;-79
2021/12/29 04:35:50;;;;;;;15.35;6.50;;;-3.40;91.00;;;;;;5034991;28;20040;-79
2021/12/29 04:38:16;;;;;;;11.95;6.53;;;-3.50;90.90;;;;;;5050216;28;20029;-80
2021/12/29 04:40:42;;;;;;;10.23;5.50;;;-3.50;90.90;;;;;;5034627;28;20029;-80
2021/12/29 04:43:08;;;;;;;11.23;6.85;;;-3.50;90.90;;;;;;5035021;28;20041;-80
2021/12/29 04:45:34;;;;;;;13.00;5.97;;;-3.50;91.00;;;;;;5034727;28;20044;-80
2021/12/29 04:48:00;;;;;;;12.18;5.45;;;-3.50;90.90;;;;;;5034648;28;20029;-79
2021/12/29 04:50:30;;;;;;;10.95;5.60;;;-3.50;91.00;;;;;;5034672;28;20021;-78
2021/12/29 04:53:00;;;;;;;8.65;5.13;;;-3.50;91.20;;;;;;5033591;28;20087;-79
2021/12/29 04:55:27;;;;;;;9.07;5.65;;;-3.50;91.10;;;;;;5049916;28;20483;-79
2021/12/29 04:57:54;;;;;;;8.80;5.38;;;-3.50;91.20;;;;;;5049762;28;20037;-79
2021/12/29 05:00:23;;;;;;;9.70;5.18;;;-3.40;91.00;;;;;;5049964;28;20030;-79
2021/12/29 05:02:50;;;;;;;10.35;5.03;;;-3.50;90.80;;;;;;5049345;28;20037;-77
2021/12/29 05:05:22;;;;;;;12.93;5.72;;;-3.50;90.90;;;;;;5034755;28;20025;-81
2021/12/29 05:10:33;;;;;;;8.05;4.72;;;-3.60;90.80;;;;;;5034559;28;20040;-78
2021/12/29 05:12:58;;;;;;;7.85;3.63;;;-3.60;91.10;;;;;;5032680;28;20064;-79
2021/12/29 05:15:24;;;;;;;11.85;5.72;;;-3.60;91.00;;;;;;5033808;28;20104;-78
2021/12/29 05:17:50;;;;;;;8.45;4.97;;;-3.60;91.00;;;;;;5034321;28;20075;-80
2021/12/29 05:20:16;;;;;;;8.93;4.97;;;-3.60;91.00;;;;;;5034343;28;20379;-79
2021/12/29 05:22:41;;;;;;;11.57;5.30;;;-3.60;91.10;;;;;;5033815;28;20064;-80
2021/12/29 05:25:07;;;;;;;10.32;5.20;;;-3.60;91.10;;;;;;5049257;28;20440;-80
2021/12/29 05:27:33;;;;;;;13.35;6.35;;;-3.60;91.30;;;;;;5048885;28;20030;-80
2021/12/29 05:30:02;;;;;;;9.18;5.07;;;-3.60;91.20;;;;;;5033895;28;20100;-80
2021/12/29 05:32:30;;;;;;;18.50;7.80;;;-3.60;91.00;;;;;;5034024;28;20036;-80
2021/12/29 05:34:56;;;;;;;17.35;7.82;;;-3.60;91.00;;;;;;5032696;28;20025;-80
2021/12/29 05:37:23;;;;;;;18.17;8.02;;;-3.60;91.10;;;;;;5033769;28;20022;-80
2021/12/29 05:39:49;;;;;;;13.85;6.22;;;-3.60;91.00;;;;;;5033621;28;20459;-79
2021/12/29 05:42:15;;;;;;;13.93;6.50;;;-3.60;91.00;;;;;;5032973;28;20056;-80
2021/12/29 05:44:41;;;;;;;15.18;5.65;;;-3.60;91.10;;;;;;5032616;28;20030;-79
2021/12/29 05:47:07;;;;;;;19.55;9.05;;;-3.60;91.10;;;;;;5035206;28;20534;-79
2021/12/29 05:49:33;;;;;;;18.00;8.32;;;-3.60;91.10;;;;;;5042448;28;20029;-77
2021/12/29 05:51:59;;;;;;;18.65;8.15;;;-3.50;91.10;;;;;;5039922;28;20034;-78
2021/12/29 05:54:24;;;;;;;15.88;7.57;;;-3.50;91.10;;;;;;5047071;28;20029;-75
2021/12/29 05:56:50;;;;;;;15.38;7.28;;;-3.50;91.10;;;;;;5034581;28;20039;-77
2021/12/29 05:59:16;;;;;;;18.40;8.90;;;-3.50;91.10;;;;;;5038516;28;20027;-78
2021/12/29 06:01:43;;;;;;;20.08;9.27;;;-3.50;91.30;;;;;;5041100;28;20378;-78
2021/12/29 06:04:09;;;;;;;11.27;5.70;;;-3.50;91.40;;;;;;5041153;28;20048;-77
2021/12/29 06:06:35;;;;;;;14.02;7.72;;;-3.40;91.20;;;;;;5039986;28;20065;-77
2021/12/29 06:09:01;;;;;;;19.63;8.65;;;-3.50;91.00;;;;;;5053498;28;20032;-82
2021/12/29 06:11:26;;;;;;;18.63;8.65;;;-3.50;91.00;;;;;;5055577;28;20474;-77
2021/12/29 06:13:52;;;;;;;16.65;9.45;;;-3.40;91.10;;;;;;5052707;28;20070;-76
2021/12/29 06:16:18;;;;;;;15.45;9.35;;;-3.40;91.10;;;;;;5065575;28;20056;-78
2021/12/29 06:18:43;;;;;;;19.85;9.85;;;-3.40;91.10;;;;;;5072860;28;20108;-78
2021/12/29 06:21:16;;;;;;;16.75;9.02;;;-3.40;91.10;;;;;;5057240;28;20477;-72
2021/12/29 06:23:45;;;;;;;16.70;8.27;;;-3.40;90.90;;;;;;5044538;28;20095;-75
2021/12/29 06:26:11;;;;;;;12.88;7.38;;;-3.40;91.00;;;;;;5035314;28;20445;-74
2021/12/29 06:28:37;;;;;;;17.73;8.10;;;-3.40;91.10;;;;;;5037011;28;20037;-75
2021/12/29 06:31:03;;;;;;;22.92;8.15;;;-3.40;91.10;;;;;;5037104;28;20570;-75
2021/12/29 06:33:29;;;;;;;12.52;7.53;;;-3.40;91.10;;;;;;5051469;28;20025;-76
2021/12/29 06:35:54;;;;;;;15.77;8.27;;;-3.40;91.20;;;;;;5054559;28;20043;-77
2021/12/29 06:38:20;;;;;;;12.93;6.22;;;-3.30;91.20;;;;;;5056944;28;20398;-76
2021/12/29 06:40:46;;;;;;;17.15;7.40;;;-3.30;91.10;;;;;;5051779;28;20029;-74
2021/12/29 06:43:11;;;;;;;15.75;7.28;;;-3.30;91.00;;;;;;5055261;28;20057;-76
2021/12/29 06:45:37;;;;;;;10.73;6.82;;;-3.30;91.10;;;;;;5049888;28;20043;-73
2021/12/29 06:48:03;;;;;;;10.55;4.75;;;-3.30;91.20;;;;;;5068626;28;20035;-80
2021/12/29 06:50:29;;;;;;;15.88;8.10;;;-3.20;91.20;;;;;;5073261;28;20021;-76
2021/12/29 06:52:55;;;;;;;14.15;7.40;;;-3.20;91.10;;;;;;5054808;28;20079;-79
2021/12/29 06:55:21;;;;;;;16.23;8.30;;;-3.20;91.10;;;;;;5070612;28;20031;-75
2021/12/29 06:57:46;;;;;;;23.25;11.30;;;-3.20;91.10;;;;;;5052725;28;20426;-75
2021/12/29 07:00:13;;;;;;;30.30;11.48;;;-3.20;91.10;;;;;;5036319;28;20080;-75
2021/12/29 07:02:40;;;;;;;27.20;10.80;;;-3.20;91.00;;;;;;5036814;28;20025;-75
2021/12/29 07:05:06;;;;;;;23.35;11.70;;;-3.10;91.10;;;;;;5036610;28;20028;-72
2021/12/29 07:07:32;;;;;;;16.48;9.30;;;-3.10;91.10;;;;;;5035054;28;20029;-72
2021/12/29 07:09:57;;;;;;;20.05;9.75;;;-3.10;90.90;;;;;;5035025;28;20040;-73
2021/12/29 07:12:23;;;;;;;18.67;10.25;;;-3.10;90.90;;;;;;5036780;28;20446;-73
2021/12/29 07:14:49;;;;;;;16.48;6.80;;;-3.00;90.90;;;;;;5036561;28;20379;-73
2021/12/29 07:17:15;;;;;;;16.67;8.43;;;-3.00;90.90;;;;;;5036287;28;20037;-73
2021/12/29 07:19:40;;;;;;;21.20;7.32;;;-3.00;90.70;;;;;;5035151;28;20059;-73
2021/12/29 07:22:07;;;;;;;12.88;5.93;;;-3.00;90.60;;;;;;5036033;28;20463;-73
2021/12/29 07:24:34;;;;;;;10.48;6.13;;;-3.00;90.50;;;;;;5034513;28;20057;-74
2021/12/29 07:27:00;;;;;;;10.55;5.70;;;-3.00;90.60;;;;;;5036007;28;20025;-72
2021/12/29 07:29:25;;;;;;;13.10;6.35;;;-3.00;90.80;;;;;;5035769;28;20037;-72
2021/12/29 07:31:53;;;;;;;13.95;6.88;;;-3.00;90.90;;;;;;5034677;28;20116;-73
2021/12/29 07:34:20;;;;;;;12.02;5.85;;;-2.90;91.00;;;;;;5035945;28;20164;-73
2021/12/29 07:36:46;;;;;;;15.52;8.05;;;-2.90;90.90;;;;;;5036199;28;20031;-73
2021/12/29 07:39:14;;;;;;;17.75;8.15;;;-2.80;91.00;;;;;;5035928;28;20079;-73
2021/12/29 07:41:40;;;;;;;15.77;7.72;;;-2.80;90.90;;;;;;5036394;28;20092;-73
2021/12/29 07:44:07;;;;;;;16.50;8.05;;;-2.70;90.90;;;;;;5035876;28;20029;-73
2021/12/29 07:46:34;;;;;;;15.23;7.47;;;-2.70;90.90;;;;;;5035690;28;20087;-73
2021/12/29 07:49:03;;;;;;;16.42;8.05;;;-2.60;90.80;;;;;;5035768;28;20057;-72
2021/12/29 07:51:30;;;;;;;17.77;7.72;;;-2.60;90.50;;;;;;5035704;28;20025;-74
2021/12/29 07:53:56;;;;;;;12.65;6.50;;;-2.60;90.20;;;;;;5035510;28;20044;-72
2021/12/29 07:56:22;;;;;;;19.83;8.88;;;-2.60;90.30;;;;;;5035936;28;20029;-73
2021/12/29 07:58:48;;;;;;;16.05;7.28;;;-2.60;90.40;;;;;;5035461;28;20615;-73
2021/12/29 08:01:14;;;;;;;15.00;6.72;;;-2.50;90.50;;;;;;5035754;28;20422;-74
2021/12/29 08:03:40;;;;;;;14.85;8.27;;;-2.50;90.30;;;;;;5035336;28;20055;-71
2021/12/29 08:06:06;;;;;;;17.10;8.80;;;-2.50;90.30;;;;;;5035372;28;20029;-75
2021/12/29 08:08:32;;;;;;;19.92;7.53;;;-2.50;90.40;;;;;;5033892;28;20125;-73
2021/12/29 08:10:58;;;;;;;18.20;8.50;;;-2.40;90.40;;;;;;5035554;28;20108;-74
2021/12/29 08:13:23;;;;;;;15.90;7.57;;;-2.40;90.30;;;;;;5035319;28;20057;-75
2021/12/29 08:15:49;;;;;;;13.27;5.88;;;-2.40;90.10;;;;;;5035381;28;20030;-71
2021/12/29 08:18:15;;;;;;;13.88;6.28;;;-2.40;90.00;;;;;;5033718;28;20067;-72
2021/12/29 08:20:41;;;;;;;15.35;7.22;;;-2.30;89.90;;;;;;5035189;28;20057;-73
2021/12/29 08:23:08;;;;;;;13.27;6.85;;;-2.40;89.80;;;;;;5034663;28;20029;-72
2021/12/29 08:25:35;;;;;;;13.63;5.72;;;-2.40;90.00;;;;;;5033754;28;20076;-75
2021/12/29 08:28:00;;;;;;;14.73;7.35;;;-2.40;90.00;;;;;;5035093;28;20353;-72
2021/12/29 08:30:27;;;;;;;14.18;6.03;;;-2.40;90.00;;;;;;5035234;28;20144;-75
2021/12/29 08:32:53;;;;;;;11.20;6.65;;;-2.30;90.10;;;;;;5033344;28;20357;-73
2021/12/29 08:35:19;;;;;;;13.05;6.28;;;-2.30;90.00;;;;;;5033238;28;20021;-73
2021/12/29 08:37:44;;;;;;;9.00;4.70;;;-2.30;89.40;;;;;;5034224;28;20025;-73
2021/12/29 08:40:11;;;;;;;14.95;7.07;;;-2.20;89.20;;;;;;5033639;28;20106;-74
2021/12/29 08:42:38;;;;;;;12.90;6.93;;;-2.20;89.20;;;;;;5034611;28;20033;-73
2021/12/29 08:45:06;;;;;;;11.43;6.35;;;-2.20;88.90;;;;;;5034641;28;20057;-73
2021/12/29 08:47:32;;;;;;;13.65;6.97;;;-2.30;88.70;;;;;;5034643;28;20032;-73
2021/12/29 08:49:58;;;;;;;12.55;6.63;;;-2.30;89.20;;;;;;5034582;28;20044;-73
2021/12/29 08:52:24;;;;;;;15.50;6.90;;;-2.30;89.40;;;;;;5034460;28;20029;-75
2021/12/29 08:54:50;;;;;;;15.93;8.23;;;-2.20;89.20;;;;;;5034610;28;20467;-71
2021/12/29 08:57:16;;;;;;;23.35;9.63;;;-2.20;89.40;;;;;;5034861;28;20030;-71
2021/12/29 08:59:41;;;;;;;19.60;8.73;;;-2.20;89.50;;;;;;5033232;28;20132;-71
2021/12/29 09:02:08;;;;;;;15.10;7.47;;;-2.20;89.00;;;;;;5034524;28;20026;-73
2021/12/29 09:04:34;;;;;;;15.60;7.30;;;-2.10;89.00;;;;;;5034337;28;20026;-75
2021/12/29 09:07:00;;;;;;;13.05;6.05;;;-2.10;89.00;;;;;;5034782;28;20556;-72
2021/12/29 09:09:25;;;;;;;12.90;6.80;;;-2.10;88.60;;;;;;5034359;28;20472;-72
2021/12/29 09:11:53;;;;;;;12.25;6.20;;;-2.20;88.50;;;;;;5034466;28;20049;-72
2021/12/29 09:14:19;;;;;;;10.52;6.35;;;-2.20;88.80;;;;;;5034303;28;20120;-73
2021/12/29 09:16:45;;;;;;;15.85;5.72;;;-2.10;88.80;;;;;;5034091;28;20117;-73
2021/12/29 09:19:13;;;;;;;13.98;6.40;;;-2.10;88.60;;;;;;5033785;28;20061;-74
2021/12/29 09:21:42;;;;;;;9.23;5.75;;;-2.00;88.90;;;;;;5034171;28;20025;-73
2021/12/29 09:24:08;;;;;;;19.67;8.40;;;-1.90;89.00;;;;;;5034102;28;20064;-73
2021/12/29 09:26:34;;;;;;;8.52;5.05;;;-1.90;88.20;;;;;;5034092;28;20057;-72
2021/12/29 09:28:59;;;;;;;9.50;5.22;;;-2.00;87.60;;;;;;5033735;28;20036;-71
2021/12/29 09:31:25;;;;;;;12.25;6.38;;;-2.00;87.90;;;;;;5032748;28;20026;-73
2021/12/29 09:33:51;;;;;;;8.80;5.05;;;-1.90;88.30;;;;;;5032575;28;20032;-72
2021/12/29 09:36:18;;;;;;;11.60;5.90;;;-1.90;88.00;;;;;;5033846;28;20051;-75
2021/12/29 09:38:44;;;;;;;11.43;6.60;;;-1.90;87.60;;;;;;5032475;28;20030;-73
2021/12/29 09:41:14;;;;;;;11.80;6.22;;;-1.90;87.50;;;;;;5033588;28;20053;-73
2021/12/29 09:43:41;;;;;;;10.60;5.95;;;-1.90;87.50;;;;;;5033857;28;20029;-74
2021/12/29 09:46:07;;;;;;;12.50;6.28;;;-1.90;87.40;;;;;;5033523;28;20030;-73
2021/12/29 09:48:35;;;;;;;15.50;6.82;;;-1.90;87.60;;;;;;5032609;28;20378;-72
2021/12/29 09:51:02;;;;;;;13.13;6.35;;;-1.80;87.50;;;;;;5033897;28;20052;-73
2021/12/29 09:53:27;;;;;;;15.05;6.78;;;-1.80;87.40;;;;;;5032441;28;20022;-72
2021/12/29 09:55:53;;;;;;;12.73;6.55;;;-1.80;87.60;;;;;;5033474;28;20021;-74
2021/12/29 09:58:19;;;;;;;14.40;7.50;;;-1.70;87.50;;;;;;5033314;28;20029;-72
2021/12/29 10:00:47;;;;;;;15.00;7.45;;;-1.70;87.10;;;;;;5033294;28;20060;-72
2021/12/29 10:03:15;;;;;;;13.13;7.18;;;-1.70;86.60;;;;;;5033489;28;20422;-74
2021/12/29 10:05:44;;;;;;;12.32;6.43;;;-1.80;86.40;;;;;;5033692;28;20051;-73
2021/12/29 10:08:20;;;;;;;16.52;6.47;;;-1.70;87.10;;;;;;5032320;28;20383;-73
2021/12/29 10:10:49;;;;;;;14.13;5.97;;;-1.70;86.60;;;;;;5032253;28;20033;-71
2021/12/29 10:13:16;;;;;;;12.10;6.22;;;-1.70;86.40;;;;;;5031808;28;20172;-74
2021/12/29 10:15:45;;;;;;;11.07;6.32;;;-1.70;86.10;;;;;;5033285;28;20382;-72
2021/12/29 10:18:13;;;;;;;12.25;5.57;;;-1.80;85.80;;;;;;5032302;28;20022;-73
2021/12/29 10:20:51;;;;;;;13.38;6.22;;;-1.80;86.10;;;;;;5033504;28;20117;-70
2021/12/29 10:23:25;;;;;;;16.95;7.28;;;-1.80;86.30;;;;;;5032037;28;20026;-72
2021/12/29 10:25:52;;;;;;;14.93;7.30;;;-1.80;85.90;;;;;;5033214;28;20026;-74
2021/12/29 10:28:20;;;;;;;14.07;7.47;;;-1.70;85.80;;;;;;5032062;28;20033;-74
2021/12/29 10:31:13;;;;;;;14.90;7.25;;;-1.80;85.50;;;;;;5032004;28;20128;-72
2021/12/29 10:33:43;;;;;;;15.90;7.20;;;-1.80;85.70;;;;;;5033704;28;20379;-72
2021/12/29 10:36:15;;;;;;;14.60;7.57;;;-1.80;85.70;;;;;;5032857;28;20029;-74
2021/12/29 10:38:42;;;;;;;13.95;8.02;;;-1.80;85.60;;;;;;5033104;28;20120;-74
2021/12/29 10:41:09;;;;;;;15.20;6.82;;;-1.80;85.60;;;;;;5033098;28;20116;-72
2021/12/29 10:43:37;;;;;;;16.63;8.38;;;-1.80;85.90;;;;;;5033345;28;20106;-73
2021/12/29 10:46:02;;;;;;;17.80;7.72;;;-1.80;85.90;;;;;;5031860;28;20434;-74
2021/12/29 10:48:30;;;;;;;17.27;8.05;;;-1.80;85.70;;;;;;5032929;28;20040;-73
2021/12/29 10:51:01;;;;;;;13.95;6.53;;;-1.80;85.30;;;;;;5032891;28;20083;-73
2021/12/29 10:53:28;;;;;;;12.90;6.30;;;-1.80;85.20;;;;;;5033120;28;20052;-73
2021/12/29 10:55:53;;;;;;;22.35;9.82;;;-1.80;85.40;;;;;;5032181;28;20057;-74
2021/12/29 10:58:25;;;;;;;14.68;7.70;;;-1.80;85.50;;;;;;5033601;28;20036;-72
2021/12/29 11:01:05;;;;;;;17.05;8.52;;;-1.80;85.40;;;;;;5035460;28;20082;-73
2021/12/29 11:03:33;;;;;;;15.73;8.07;;;-1.80;85.00;;;;;;5036652;28;20474;-74
2021/12/29 11:06:01;;;;;;;15.25;7.25;;;-1.90;84.90;;;;;;5036884;28;20037;-73
2021/12/29 11:08:31;;;;;;;14.45;8.65;;;-1.80;85.50;;;;;;5036457;28;20029;-74
2021/12/29 11:11:05;;;;;;;19.85;8.73;;;-1.70;85.50;;;;;;5036437;28;20026;-74
2021/12/29 11:13:32;;;;;;;19.23;8.85;;;-1.70;85.10;;;;;;5036186;28;20053;-73
2021/12/29 11:16:00;;;;;;;11.95;6.57;;;-1.70;84.80;;;;;;5036486;28;20051;-74
2021/12/29 11:18:40;;;;;;;15.40;7.55;;;-1.80;84.70;;;;;;5035179;28;20379;-74
2021/12/29 11:21:06;;;;;;;14.70;7.28;;;-1.80;85.00;;;;;;5036485;28;20021;-74
2021/12/29 11:23:32;;;;;;;12.50;7.00;;;-1.80;85.30;;;;;;5036406;28;20513;-74
2021/12/29 11:26:01;;;;;;;19.75;8.90;;;-1.70;85.30;;;;;;5036026;28;20037;-72
2021/12/29 11:28:30;;;;;;;19.02;8.02;;;-1.60;85.00;;;;;;5036051;28;20455;-73
2021/12/29 11:30:58;;;;;;;22.00;9.60;;;-1.70;84.90;;;;;;5034943;28;20052;-74
2021/12/29 11:33:24;;;;;;;19.50;9.07;;;-1.60;85.10;;;;;;5034970;28;20060;-74
2021/12/29 11:35:53;;;;;;;20.65;10.02;;;-1.60;84.60;;;;;;5036111;28;20061;-73
2021/12/29 11:38:21;;;;;;;19.10;8.43;;;-1.60;84.40;;;;;;5034751;28;20033;-72
2021/12/29 11:40:51;;;;;;;18.52;8.75;;;-1.60;84.30;;;;;;5034715;28;20061;-72
2021/12/29 11:43:19;;;;;;;14.63;8.05;;;-1.70;84.40;;;;;;5034995;28;20360;-73
2021/12/29 11:45:48;;;;;;;20.55;9.10;;;-1.70;84.60;;;;;;5035676;28;20038;-74
2021/12/29 11:48:17;;;;;;;17.55;7.57;;;-1.70;84.50;;;;;;5035010;28;20032;-72
2021/12/29 11:50:50;;;;;;;21.15;8.40;;;-1.70;84.50;;;;;;5034784;28;20030;-72
2021/12/29 11:53:30;;;;;;;15.25;8.15;;;-1.80;84.20;;;;;;5035541;28;20152;-72
2021/12/29 11:56:14;;;;;;;22.65;10.63;;;-1.80;84.70;;;;;;5035524;28;20038;-71
2021/12/29 11:58:42;;;;;;;17.83;9.30;;;-1.90;84.00;;;;;;5035842;28;20056;-73
2021/12/29 12:01:08;;;;;;;21.90;11.48;;;-1.90;84.60;;;;;;5034165;28;20108;-70
2021/12/29 12:03:52;;;;;;;17.05;8.05;;;-1.90;85.60;;;;;;5034057;28;20026;-70
2021/12/29 12:06:19;;;;;;;14.02;8.25;;;-1.90;85.10;;;;;;5035731;28;20037;-71
2021/12/29 12:08:45;;;;;;;15.10;6.60;;;-1.90;85.20;;;;;;5035481;28;20028;-72
2021/12/29 12:11:28;;;;;;;16.50;7.40;;;-1.80;85.10;;;;;;5034737;28;20033;-71
2021/12/29 12:13:54;;;;;;;12.88;6.90;;;-1.80;84.90;;;;;;5034254;28;20045;-72
2021/12/29 12:16:21;;;;;;;16.55;7.07;;;-1.90;84.60;;;;;;5035248;28;20116;-73
2021/12/29 12:18:50;;;;;;;18.25;8.20;;;-1.90;84.70;;;;;;5034011;28;20030;-71
2021/12/29 12:21:39;;;;;;;14.27;7.78;;;-1.90;84.80;;;;;;5033939;28;20029;-71
2021/12/29 12:24:16;;;;;;;13.02;7.15;;;-1.80;85.00;;;;;;5034050;28;20032;-72
2021/12/29 12:26:59;;;;;;;12.05;6.97;;;-1.80;84.50;;;;;;5034820;28;20030;-72
2021/12/29 12:29:38;;;;;;;16.20;7.93;;;-1.80;84.60;;;;;;5035179;28;20026;-71
2021/12/29 12:32:18;;;;;;;14.80;7.50;;;-1.70;84.60;;;;;;5034961;28;20018;-71
2021/12/29 12:34:57;;;;;;;15.77;7.15;;;-1.70;84.40;;;;;;5050286;28;20029;-73
2021/12/29 12:37:34;;;;;;;16.88;7.22;;;-1.70;84.20;;;;;;5033644;28;20598;-72
2021/12/29 12:40:05;;;;;;;11.90;6.80;;;-1.70;84.00;;;;;;5035316;28;20036;-73
2021/12/29 12:42:33;;;;;;;10.88;6.38;;;-1.70;83.70;;;;;;5033389;28;20021;-72